createdAt,value
2023-06-20T00:00:26.934Z,99506.22
2023-06-20T00:05:28.692Z,99513.31
2023-06-20T00:10:30.436Z,99503.63
2023-06-20T00:15:32.621Z,99502.78
2023-06-20T00:20:34.321Z,99494.50
2023-06-20T00:25:35.960Z,99485.50
2023-06-20T00:30:37.678Z,99494.84
2023-06-20T00:35:39.480Z,99489.31
2023-06-20T00:40:41.134Z,99484.91
2023-06-20T00:45:43.050Z,99479.34
2023-06-20T00:50:45.104Z,99481.94
2023-06-20T00:55:47.837Z,99484.13
2023-06-20T01:00:49.541Z,99480.78
2023-06-20T01:06:05.643Z,99475.75
2023-06-20T01:11:39.709Z,99473.78
2023-06-20T01:16:52.101Z,99465.47
2023-06-20T01:22:01.324Z,99458.63
2023-06-20T01:27:09.912Z,99449.72
2023-06-20T01:32:16.794Z,99445.19
2023-06-20T01:37:23.421Z,99442.41
2023-06-20T01:42:27.725Z,99440.78
2023-06-20T01:47:31.764Z,99445.38
2023-06-20T01:52:36.465Z,99445.28
2023-06-20T01:57:38.863Z,99441.50
2023-06-20T02:02:41.574Z,99438.03
2023-06-20T02:07:45.686Z,99441.56
2023-06-20T02:12:50.480Z,99446.66
2023-06-20T02:17:53.938Z,99441.38
2023-06-20T02:22:57.017Z,99422.59
2023-06-20T02:28:00.281Z,99422.72
2023-06-20T02:33:06.427Z,99426.72
2023-06-20T02:38:09.003Z,99437.38
2023-06-20T02:43:10.720Z,99439.47
2023-06-20T02:48:31.010Z,99450.13
2023-06-20T02:53:47.223Z,99445.25
2023-06-20T02:58:55.577Z,99460.59
2023-06-20T03:04:02.688Z,99455.03
2023-06-20T03:09:05.803Z,99464.41
2023-06-20T03:14:13.767Z,99474.69
2023-06-20T03:19:16.004Z,99455.72
2023-06-20T03:24:18.687Z,99462.13
2023-06-20T03:29:20.495Z,99461.03
2023-06-20T03:34:22.286Z,99462.44
2023-06-20T03:39:23.968Z,99470.78
2023-06-20T03:44:26.326Z,99469.34
2023-06-20T03:49:28.083Z,99481.41
2023-06-20T03:54:30.263Z,99485.59
2023-06-20T03:59:33.916Z,99494.75
2023-06-20T04:04:35.705Z,99488.75
2023-06-20T04:09:37.443Z,99486.19
2023-06-20T04:14:39.272Z,99499.63
2023-06-20T04:19:40.966Z,99486.72
2023-06-20T04:24:42.750Z,99483.34
2023-06-20T04:29:44.479Z,99485.88
2023-06-20T04:34:47.879Z,99487.69
2023-06-20T04:39:50.208Z,99498.09
2023-06-20T04:44:52.521Z,99495.28
2023-06-20T04:49:54.196Z,99488.84
2023-06-20T04:55:03.031Z,99489.75
2023-06-20T05:00:08.892Z,99507.47
2023-06-20T05:05:12.040Z,99502.94
2023-06-20T05:10:14.530Z,99500.66
2023-06-20T05:15:16.207Z,99497.25
2023-06-20T05:20:17.935Z,99496.78
2023-06-20T05:25:19.771Z,99486.13
2023-06-20T05:30:21.421Z,99487.94
2023-06-20T05:35:23.245Z,99502.09
2023-06-20T05:40:25.202Z,99502.75
2023-06-20T05:45:27.093Z,99504.47
2023-06-20T05:50:29.105Z,99505.91
2023-06-20T05:55:30.952Z,99510.59
2023-06-20T06:00:34.210Z,99511.09
2023-06-20T06:05:35.912Z,99503.34
2023-06-20T06:10:38.253Z,99507.41
2023-06-20T06:15:43.065Z,99503.50
2023-06-20T06:20:52.553Z,99499.25
2023-06-20T06:25:54.394Z,99500.44
2023-06-20T06:31:00.436Z,99494.56
2023-06-20T06:36:02.556Z,99504.31
2023-06-20T06:41:04.655Z,99505.38
2023-06-20T06:46:06.482Z,99509.06
2023-06-20T06:51:08.588Z,99515.78
2023-06-20T06:56:10.229Z,99521.31
2023-06-20T07:01:11.960Z,99518.00
2023-06-20T07:06:13.618Z,99522.13
2023-06-20T07:11:15.285Z,99526.53
2023-06-20T07:16:17.113Z,99525.16
2023-06-20T07:21:18.835Z,99519.13
2023-06-20T07:26:20.486Z,99525.38
2023-06-20T07:31:22.418Z,99520.19
2023-06-20T07:36:24.340Z,99514.09
2023-06-20T07:41:25.996Z,99506.66
2023-06-20T07:46:27.741Z,99498.91
2023-06-20T07:51:31.618Z,99518.47
2023-06-20T07:56:33.390Z,99521.88
2023-06-20T08:01:35.183Z,99522.53
2023-06-20T08:06:37.251Z,99530.06
2023-06-20T08:11:39.353Z,99559.22
2023-06-20T08:16:41.156Z,99554.03
2023-06-20T08:21:43.042Z,99565.41
2023-06-20T08:26:44.827Z,99552.16
2023-06-20T08:31:47.829Z,99562.50
2023-06-20T08:36:51.402Z,99558.81
2023-06-20T08:41:53.369Z,99554.91
2023-06-20T08:46:58.619Z,99558.63
2023-06-20T08:52:10.038Z,99571.16
2023-06-20T08:57:12.505Z,99568.28
2023-06-20T09:02:14.487Z,99581.28
2023-06-20T09:07:20.151Z,99582.16
2023-06-20T09:12:22.051Z,99593.44
2023-06-20T09:17:23.797Z,99590.41
2023-06-20T09:22:26.584Z,99587.25
2023-06-20T09:27:34.467Z,99601.34
2023-06-20T09:32:38.659Z,99607.25
2023-06-20T09:37:40.320Z,99606.63
2023-06-20T09:42:43.589Z,99604.56
2023-06-20T09:47:46.146Z,99614.66
2023-06-20T09:52:56.307Z,99616.31
2023-06-20T09:58:01.105Z,99622.91
2023-06-20T10:03:07.920Z,99609.75
2023-06-20T10:08:09.992Z,99599.22
2023-06-20T10:13:13.223Z,99587.59
2023-06-20T10:18:36.425Z,99573.34
2023-06-20T10:23:39.720Z,99588.00
2023-06-20T10:28:42.647Z,99588.34
2023-06-20T10:33:46.712Z,99579.16
2023-06-20T10:38:54.416Z,99578.03
2023-06-20T10:44:03.225Z,99581.81
2023-06-20T10:49:05.678Z,99578.69
2023-06-20T10:54:11.341Z,99575.50
2023-06-20T10:59:15.096Z,99569.59
2023-06-20T11:04:18.282Z,99567.75
2023-06-20T11:09:26.939Z,99568.41
2023-06-20T11:14:28.630Z,99568.41
2023-06-20T11:19:37.340Z,99555.03
2023-06-20T11:24:39.643Z,99551.06
2023-06-20T11:29:41.441Z,99542.72
2023-06-20T11:34:57.673Z,99526.69
2023-06-20T11:40:00.133Z,99515.97
2023-06-20T11:45:12.156Z,99517.84
2023-06-20T11:50:24.623Z,99516.84
2023-06-20T11:55:45.765Z,99520.34
2023-06-20T12:00:58.588Z,99524.97
2023-06-20T12:06:00.298Z,99529.69
2023-06-20T12:11:04.007Z,99522.69
2023-06-20T12:16:06.300Z,99508.91
2023-06-20T12:21:08.228Z,99513.59
2023-06-20T12:26:10.374Z,99512.13
2023-06-20T12:31:13.300Z,99509.13
2023-06-20T12:36:16.766Z,99496.97
2023-06-20T12:41:18.837Z,99500.84
2023-06-20T12:46:20.516Z,99500.06
2023-06-20T12:51:22.586Z,99482.16
2023-06-20T12:56:24.497Z,99482.03
2023-06-20T13:01:26.309Z,99466.34
2023-06-20T13:06:28.098Z,99457.84
2023-06-20T13:11:29.823Z,99444.44
2023-06-20T13:16:33.422Z,99442.25
2023-06-20T13:21:35.759Z,99439.16
2023-06-20T13:26:37.438Z,99437.53
2023-06-20T13:31:39.146Z,99447.13
2023-06-20T13:36:40.900Z,99448.31
2023-06-20T13:41:42.607Z,99424.72
2023-06-20T13:46:44.508Z,99430.97
2023-06-20T13:51:46.539Z,99418.03
2023-06-20T13:56:48.272Z,99412.25
2023-06-20T14:01:50.032Z,99405.16
2023-06-20T14:06:52.357Z,99403.16
2023-06-20T14:11:54.030Z,99407.22
2023-06-20T14:16:56.516Z,99389.81
2023-06-20T14:21:58.199Z,99378.00
2023-06-20T14:27:00.017Z,99382.38
2023-06-20T14:32:01.695Z,99378.53
2023-06-20T14:37:03.595Z,99376.28
2023-06-20T14:42:05.571Z,99367.09
2023-06-20T14:47:07.751Z,99362.81
2023-06-20T14:52:09.547Z,99357.25
2023-06-20T14:57:11.491Z,99358.38
2023-06-20T15:02:13.204Z,99351.34
2023-06-20T15:07:15.105Z,99354.78
2023-06-20T15:12:16.784Z,99350.88
2023-06-20T15:17:18.616Z,99339.38
2023-06-20T15:22:20.280Z,99330.78
2023-06-20T15:27:21.929Z,99323.69
2023-06-20T15:32:23.645Z,99326.72
2023-06-20T15:37:25.368Z,99321.69
2023-06-20T15:42:27.193Z,99314.31
2023-06-20T15:47:29.331Z,99303.97
2023-06-20T15:52:31.273Z,99303.16
2023-06-20T15:57:32.951Z,99304.78
2023-06-20T16:02:34.761Z,99296.50
2023-06-20T16:07:36.494Z,99305.44
2023-06-20T16:12:39.134Z,99302.25
2023-06-20T16:17:40.938Z,99302.75
2023-06-20T16:22:42.962Z,99298.34
2023-06-20T16:27:45.149Z,99294.44
2023-06-20T16:32:47.059Z,99294.09
2023-06-20T16:37:49.173Z,99286.72
2023-06-20T16:42:50.918Z,99280.56
2023-06-20T16:47:53.101Z,99272.88
2023-06-20T16:52:54.875Z,99275.69
2023-06-20T16:57:56.540Z,99279.34
2023-06-20T17:02:58.308Z,99270.84
2023-06-20T17:07:59.991Z,99277.09
2023-06-20T17:13:01.668Z,99279.81
2023-06-20T17:18:03.631Z,99279.06
2023-06-20T17:23:05.365Z,99273.72
2023-06-20T17:28:07.073Z,99270.41
2023-06-20T17:33:08.827Z,99278.47
2023-06-20T17:38:10.496Z,99274.00
2023-06-20T17:43:12.187Z,99267.72
2023-06-20T17:48:13.910Z,99271.69
2023-06-20T17:53:15.703Z,99259.34
2023-06-20T17:58:17.348Z,99257.78
2023-06-20T18:03:19.531Z,99256.50
2023-06-20T18:08:22.432Z,99251.41
2023-06-20T18:13:24.245Z,99245.97
2023-06-20T18:18:25.882Z,99231.84
2023-06-20T18:23:27.562Z,99228.69
2023-06-20T18:28:29.191Z,99230.03
2023-06-20T18:33:30.885Z,99226.59
2023-06-20T18:38:33.331Z,99231.66
2023-06-20T18:43:35.033Z,99223.78
2023-06-20T18:48:36.719Z,99224.75
2023-06-20T18:53:39.236Z,99226.00
2023-06-20T18:58:40.881Z,99231.09
2023-06-20T19:03:42.776Z,99224.84
2023-06-20T19:08:44.511Z,99238.72
2023-06-20T19:13:46.364Z,99241.25
2023-06-20T19:18:48.080Z,99253.34
2023-06-20T19:23:52.329Z,99250.09
2023-06-20T19:28:54.089Z,99257.78
2023-06-20T19:33:55.871Z,99268.19
2023-06-20T19:38:57.501Z,99270.91
2023-06-20T19:43:59.216Z,99269.50
2023-06-20T19:49:02.424Z,99282.41
2023-06-20T19:54:04.320Z,99286.44
2023-06-20T19:59:06.009Z,99283.59
2023-06-20T20:04:07.880Z,99286.09
2023-06-20T20:09:09.793Z,99290.66
2023-06-20T20:14:11.456Z,99303.78
2023-06-20T20:19:13.273Z,99290.97
2023-06-20T20:24:15.929Z,99297.63
2023-06-20T20:29:18.414Z,99297.31
2023-06-20T20:34:20.060Z,99288.25
2023-06-20T20:39:21.732Z,99294.19
2023-06-20T20:44:24.825Z,99290.34
2023-06-20T20:49:26.518Z,99298.84
2023-06-20T20:54:28.174Z,99305.31
2023-06-20T20:59:29.825Z,99317.97
2023-06-20T21:04:31.544Z,99301.34
2023-06-20T21:09:33.189Z,99303.94
2023-06-20T21:14:34.934Z,99291.09
2023-06-20T21:19:36.580Z,99290.78
2023-06-20T21:24:38.431Z,99288.56
2023-06-20T21:29:40.136Z,99279.31
2023-06-20T21:34:41.788Z,99282.59
2023-06-20T21:39:43.882Z,99273.56
2023-06-20T21:44:45.558Z,99273.66
2023-06-20T21:49:47.455Z,99266.88
2023-06-20T21:54:49.116Z,99261.25
2023-06-20T21:59:50.913Z,99257.91
2023-06-20T22:04:52.566Z,99271.16
2023-06-20T22:10:03.137Z,99262.13
2023-06-20T22:15:07.003Z,99258.97
2023-06-20T22:20:12.316Z,99262.59
2023-06-20T22:25:14.114Z,99276.84
2023-06-20T22:30:15.799Z,99270.91
2023-06-20T22:35:17.569Z,99273.06
2023-06-20T22:40:19.212Z,99268.78
2023-06-20T22:45:20.941Z,99260.28
2023-06-20T22:50:23.565Z,99267.97
2023-06-20T22:55:25.328Z,99267.97
2023-06-20T23:00:27.173Z,99268.53
2023-06-20T23:05:29.190Z,99268.38
2023-06-20T23:10:31.268Z,99276.66
2023-06-20T23:15:33.070Z,99282.22
2023-06-20T23:20:38.328Z,99277.88
2023-06-20T23:25:41.620Z,99262.31
2023-06-20T23:30:43.517Z,99255.31
2023-06-20T23:35:46.001Z,99255.06
2023-06-20T23:40:47.925Z,99243.38
2023-06-20T23:45:49.761Z,99239.31
2023-06-20T23:50:52.309Z,99243.06
2023-06-20T23:55:54.957Z,99247.81
